This is the latest recevied weather packets stored in our database for station/object DL6DJ-15. If no packets are shown the sender has not sent any weather packets the latest 1 day(s).
| Time | Temp. | Humidity | Pressure | Rain* | Wind** | Luminosity | Snow |
|---|---|---|---|---|---|---|---|
| 1778054267 | 23.89° C | 37% | 1008.3 hPa | - | - | - | - |
| 1778053967 | 23.33° C | 41% | 1008.3 hPa | - | - | - | - |
| 1778053666 | 23.89° C | 37% | 1008.3 hPa | - | - | - | - |
| 1778053366 | 24.44° C | 38% | 1008.3 hPa | - | - | - | - |
| 1778053065 | 23.89° C | 39% | 1008.3 hPa | - | - | - | - |
| 1778052765 | 23.33° C | 38% | 1008.4 hPa | - | - | - | - |
| 1778052465 | 26.11° C | 34% | 1008.3 hPa | - | - | - | - |
| 1778052164 | 27.22° C | 32% | 1008.4 hPa | - | - | - | - |
| 1778051563 | 26.11° C | 36% | 1008.2 hPa | - | - | - | - |
| 1778051263 | 26.11° C | 35% | 1008.2 hPa | - | - | - | - |
| 1778050362 | 23.33° C | 40% | 1008.3 hPa | - | - | - | - |
| 1778050062 | 25° C | 37% | 1008.4 hPa | - | - | - | - |
| 1778049761 | 25° C | 38% | 1008.4 hPa | - | - | - | - |
| 1778049461 | 24.44° C | 38% | 1008.4 hPa | - | - | - | - |
| 1778048860 | 23.89° C | 40% | 1008.2 hPa | - | - | - | - |
| 1778048559 | 23.33° C | 43% | 1008.2 hPa | - | - | - | - |
| 1778048259 | 22.22° C | 45% | 1008.2 hPa | - | - | - | - |
| 1778047658 | 18.33° C | 56% | 1008.1 hPa | - | - | - | - |
| 1778047058 | 16.11° C | 62% | 1008.4 hPa | - | - | - | - |
| 1778046757 | 15.56° C | 66% | 1008.4 hPa | - | - | - | - |
| 1778046457 | 14.44° C | 68% | 1008.5 hPa | - | - | - | - |
| 1778045856 | 13.89° C | 68% | 1008.5 hPa | - | - | - | - |
| 1778045555 | 13.89° C | 68% | 1008.4 hPa | - | - | - | - |
| 1778045255 | 13.89° C | 68% | 1008.4 hPa | - | - | - | - |
| 1778044955 | 14.44° C | 67% | 1008.4 hPa | - | - | - | - |
* Rain since midnight (hover to see other rain measurements)
** Current wind speed in m/s (hover to see current wind gust speed)